EGFFEGKA

Guest
Details From EGFF - Cardiff
To EGKA - Shoreham
Flight Number -
Tags generated
Created
Modified
Stats Distance 120 nm / 222 km
Max Altitude 6,000 ft / 1,829 m
Waypoints 3
Social Downloads 1
Likes 0
Share VATSIM

Download

Looking for another format? Having issues loading an existing format? Contact us
Advertisement - Login to hide

Notes

Basic altitude profile: - Ascent Rate: 700ft/min - Ascent Speed: 65kts - Cruise Altitude: 7000ft - Cruise Speed: 110kts - Descent Rate: 500ft/min - Descent Speed: 80kts Options: - Use NATs: yes - Use PACOTS: yes - Use low airways: yes - Use high airways: yes

Route

EGFF HAZEL EGKA

ID Type Via Altitude Latitude Longitude Leg Dist Tot Dist Heading (true) Name
O EGFF APT - 0 ft / 0 m 51.39656˚ -3.34320˚ - 0 nm - Cardiff
HAZEL FIX - 6,000 ft / 1,829 m 51.00528˚ -0.98444˚ 91 nm 91 nm 104° / 106° -
O EGKA APT - 0 ft / 0 m 50.83580˚ -0.29481˚ 28 nm 119 nm 111° / 112° Shoreham

Altitude Profile

Advertisement - Login to hide

EGFF

Details ICAO EGFF (CWL)
Name Cardiff
Region United Kingdom
Timezone Europe/London (UTC+0.0)
Stats Elevation 220 ft / 67 m (AMSL)
Location 51.396565° -3.343202°
Runways 1
Magnetic Variation 1.578° W

METAR

EGFF 142120Z AUTO 28012KT 9999 NCD 05/03 Q0991

Decode

TAF

TAF EGFF 141700Z 1418/1518 29012KT 9999 SCT025 TEMPO 1418/1506 28015G25KT 6000 SHRA BKN010 PROB30 TEMPO 1418/1506 30020G35KT 2000 +SHRAGS BKN005 BKN010CB BECMG 1503/1506 34010KT PROB30 TEMPO 1506/1518 32015G25KT

Decode

Departure Runways

ID Width Length Bearing (true) Bearing (mag) Surface Threshold Offset Overrun Length
12 131 ft / 40 m 7,831 ft / 2,387 m 116.82° 118.40° Asphalt 715 ft / 218 m 0 ft / 0 m
30 131 ft / 40 m 7,831 ft / 2,387 m 296.84° 298.42° Asphalt 594 ft / 181 m 0 ft / 0 m

EGKA

Details ICAO EGKA (ESH)
Name Shoreham
Region United Kingdom
Timezone Europe/London (UTC+0.0)
Stats Elevation 7 ft / 2 m (AMSL)
Location 50.835805° -0.294806°
Runways 4
Magnetic Variation 0.434° W

METAR

EGKA 141950Z 34002KT CAVOK 03/02 Q0989

Decode

TAF

Not found

Destination Runways

ID Width Length Bearing (true) Bearing (mag) Surface Threshold Offset Overrun Length
02 59 ft / 18 m 3,408 ft / 1,039 m 21.56° 21.99° Asphalt 548 ft / 167 m 0 ft / 0 m
02R 59 ft / 18 m 2,849 ft / 868 m 21.56° 21.99° Grass 171 ft / 52 m 0 ft / 0 m
07 164 ft / 50 m 2,883 ft / 879 m 63.45° 63.88° Grass 0 ft / 0 m 0 ft / 0 m
13 59 ft / 18 m 1,739 ft / 530 m 124.90° 125.33° Grass 0 ft / 0 m 0 ft / 0 m
20 59 ft / 18 m 3,408 ft / 1,039 m 201.56° 201.99° Asphalt 367 ft / 112 m 0 ft / 0 m
20L 59 ft / 18 m 2,849 ft / 868 m 201.56° 201.99° Grass 171 ft / 52 m 0 ft / 0 m
25 164 ft / 50 m 2,883 ft / 879 m 243.46° 243.89° Grass 285 ft / 87 m 0 ft / 0 m
31 59 ft / 18 m 1,739 ft / 530 m 304.91° 305.34° Grass 394 ft / 120 m 0 ft / 0 m